首页
METAR-TAF:

METAR-TAF

机场 :

萨尔塔, 阿根廷

纬度: 24-51S, 经度: 065-29W, 海拔: 1238米

当前天气观测

该预报发布于1小时和17分钟前的17:00 UTC
风速2节,风向多变
温度 25°C
湿度 32%
气压 1016 hPa
能见度10公里或以上
1500米以下无云,无积雨云

METAR: SASA 241700Z VRB02KT CAVOK 25/07 Q1016

时间: 15:17 (18:17 UTC)

预报

该预报发布于1小时和17分钟前的17:00 UTC
预报有效从24日的 18点(UTC)到 25日的 18点(UTC)
风速10节,风向南转南东
能见度10公里或以上
1500米以下无云,无积雨云
成为
从 25日的 00点(UTC)到 25日的 03点(UTC)
风速3节,风向多变
成为
从 25日的 12点(UTC)到 25日的 15点(UTC)
风速10节,风向

TAF: SASA 241700Z 2418/2518 15010KT CAVOK TX26/2418Z TN07/2510Z BECMG 2500/2503 VRB03KT BECMG 2512/2515 09010KT

超过4000个机场的气象观测和天气预报(METAR&TAF报告)。

可查询的气象台以黄色和红色小点在地图上表示。

将鼠标移到小点上方,可查看气象台名称。

然后点击查看天气观测和预报。

如需切换地图:点击带黑十字的绿色按钮放大地图;点击带横线的绿色按钮缩小地图;或者点击绿色箭头查看邻近地区的地图。


METAR-TAF: